createdAt,value
2023-05-05T00:04:46.157Z,11.70
2023-05-05T00:09:48.669Z,12.68
2023-05-05T00:14:51.309Z,11.70
2023-05-05T00:19:53.837Z,10.60
2023-05-05T00:24:56.430Z,9.90
2023-05-05T00:29:59.001Z,9.74
2023-05-05T00:35:01.543Z,11.30
2023-05-05T00:40:04.335Z,12.49
2023-05-05T00:45:07.223Z,11.98
2023-05-05T00:50:10.821Z,10.58
2023-05-05T00:55:13.602Z,10.84
2023-05-05T01:00:16.783Z,11.45
2023-05-05T01:05:21.799Z,10.37
2023-05-05T01:10:27.672Z,11.23
2023-05-05T01:15:36.114Z,11.03
2023-05-05T01:20:48.730Z,10.37
2023-05-05T01:26:00.364Z,11.12
2023-05-05T01:31:27.740Z,10.13
2023-05-05T01:36:38.778Z,10.94
2023-05-05T01:41:48.878Z,11.97
2023-05-05T01:46:52.572Z,11.84
2023-05-05T01:51:57.582Z,10.63
2023-05-05T01:57:04.758Z,11.45
2023-05-05T02:02:10.214Z,12.19
2023-05-05T02:07:14.418Z,11.93
2023-05-05T02:12:19.267Z,10.47
2023-05-05T02:17:23.844Z,11.24
2023-05-05T02:22:26.456Z,12.09
2023-05-05T02:27:33.918Z,11.18
2023-05-05T02:32:59.980Z,9.94
2023-05-05T02:38:06.058Z,11.13
2023-05-05T02:43:10.864Z,11.89
2023-05-05T02:48:13.413Z,10.66
2023-05-05T02:53:16.260Z,9.87
2023-05-05T02:58:30.888Z,11.10
2023-05-05T03:04:17.099Z,11.90
2023-05-05T03:09:41.495Z,11.23
2023-05-05T03:14:45.483Z,9.92
2023-05-05T03:19:51.032Z,10.97
2023-05-05T03:24:53.764Z,11.59
2023-05-05T03:29:56.661Z,11.85
2023-05-05T03:34:59.183Z,11.11
2023-05-05T03:40:01.706Z,9.68
2023-05-05T03:45:04.599Z,10.32
2023-05-05T03:50:08.183Z,11.20
2023-05-05T03:55:10.890Z,10.68
2023-05-05T04:00:15.539Z,9.55
2023-05-05T04:05:19.834Z,10.49
2023-05-05T04:10:22.364Z,11.64
2023-05-05T04:15:24.985Z,11.33
2023-05-05T04:20:27.567Z,9.81
2023-05-05T04:25:30.226Z,10.35
2023-05-05T04:30:33.019Z,11.50
2023-05-05T04:35:35.617Z,10.27
2023-05-05T04:40:40.004Z,9.74
2023-05-05T04:45:52.132Z,11.08
2023-05-05T04:50:54.650Z,11.76
2023-05-05T04:55:57.120Z,10.38
2023-05-05T05:00:59.660Z,9.53
2023-05-05T05:06:02.519Z,10.99
2023-05-05T05:11:05.172Z,11.62
2023-05-05T05:16:08.763Z,10.35
2023-05-05T05:21:11.992Z,10.11
2023-05-05T05:26:14.584Z,11.72
2023-05-05T05:31:17.963Z,11.72
2023-05-05T05:36:20.561Z,10.53
2023-05-05T05:41:23.159Z,9.70
2023-05-05T05:46:25.847Z,10.67
2023-05-05T05:51:28.498Z,11.27
2023-05-05T05:56:31.147Z,10.24
2023-05-05T06:01:35.201Z,9.59
2023-05-05T06:06:37.760Z,9.37
2023-05-05T06:11:40.441Z,11.02
2023-05-05T06:16:44.109Z,10.84
2023-05-05T06:21:46.796Z,9.82
2023-05-05T06:26:49.321Z,9.27
2023-05-05T06:31:52.062Z,9.00
2023-05-05T06:36:54.787Z,9.00
2023-05-05T06:41:57.419Z,9.08
2023-05-05T06:47:00.253Z,9.16
2023-05-05T06:52:02.981Z,9.29
2023-05-05T06:57:05.518Z,9.50
2023-05-05T07:02:08.176Z,9.76
2023-05-05T07:07:10.794Z,9.93
2023-05-05T07:12:13.367Z,10.07
2023-05-05T07:17:15.991Z,10.23
2023-05-05T07:22:18.588Z,10.38
2023-05-05T07:27:21.503Z,10.51
2023-05-05T07:32:24.479Z,10.46
2023-05-05T07:37:27.438Z,10.65
2023-05-05T07:42:30.056Z,10.83
2023-05-05T07:47:32.642Z,10.86
2023-05-05T07:52:46.595Z,10.93
2023-05-05T07:57:51.016Z,11.01
2023-05-05T08:02:54.035Z,11.18
2023-05-05T08:07:59.646Z,11.46
2023-05-05T08:13:02.486Z,11.67
2023-05-05T08:18:05.231Z,11.72
2023-05-05T08:23:07.833Z,11.88
2023-05-05T08:28:10.537Z,12.07
2023-05-05T08:33:13.709Z,12.27
2023-05-05T08:38:16.861Z,12.33
2023-05-05T08:43:22.774Z,12.33
2023-05-05T08:48:28.407Z,12.32
2023-05-05T08:53:54.276Z,12.28
2023-05-05T08:58:57.652Z,12.21
2023-05-05T09:04:00.396Z,12.37
2023-05-05T09:09:03.703Z,12.54
2023-05-05T09:14:06.941Z,12.38
2023-05-05T09:19:09.831Z,12.25
2023-05-05T09:24:13.427Z,12.26
2023-05-05T09:29:23.132Z,12.54
2023-05-05T09:34:26.337Z,12.81
2023-05-05T09:39:29.458Z,13.02
2023-05-05T09:44:36.884Z,13.33
2023-05-05T09:49:39.530Z,13.33
2023-05-05T09:54:43.611Z,13.42
2023-05-05T10:00:02.262Z,13.43
2023-05-05T10:05:16.330Z,13.21
2023-05-05T10:10:19.264Z,13.35
2023-05-05T10:15:25.028Z,13.56
2023-05-05T10:20:29.845Z,13.96
2023-05-05T10:25:39.162Z,13.74
2023-05-05T10:30:46.346Z,13.69
2023-05-05T10:35:53.914Z,13.63
2023-05-05T10:40:59.415Z,13.57
2023-05-05T10:46:02.345Z,14.02
2023-05-05T10:51:41.151Z,14.51
2023-05-05T10:56:44.010Z,14.95
2023-05-05T11:01:46.639Z,15.17
2023-05-05T11:07:21.169Z,15.07
2023-05-05T11:12:23.876Z,14.98
2023-05-05T11:17:49.280Z,14.92
2023-05-05T11:23:04.071Z,14.75
2023-05-05T11:28:11.525Z,14.60
2023-05-05T11:33:31.500Z,14.44
2023-05-05T11:39:10.042Z,14.60
2023-05-05T11:44:16.708Z,14.67
2023-05-05T11:49:30.178Z,14.83
2023-05-05T11:54:35.792Z,14.97
2023-05-05T11:59:57.123Z,15.25
2023-05-05T12:05:00.702Z,15.66
2023-05-05T12:10:03.595Z,15.89
2023-05-05T12:15:07.571Z,15.70
2023-05-05T12:20:12.041Z,15.56
2023-05-05T12:25:14.959Z,15.88
2023-05-05T12:30:18.854Z,16.46
2023-05-05T12:35:21.881Z,16.19
2023-05-05T12:40:45.228Z,15.58
2023-05-05T12:45:49.430Z,15.71
2023-05-05T12:50:52.338Z,16.10
2023-05-05T12:55:54.886Z,16.08
2023-05-05T13:01:10.821Z,15.93
2023-05-05T13:06:21.081Z,15.94
2023-05-05T13:11:23.592Z,16.04
2023-05-05T13:16:26.248Z,16.21
2023-05-05T13:21:28.844Z,16.16
2023-05-05T13:26:31.681Z,16.10
2023-05-05T13:31:34.401Z,16.22
2023-05-05T13:36:37.596Z,16.25
2023-05-05T13:41:40.397Z,16.39
2023-05-05T13:46:43.386Z,16.88
2023-05-05T13:51:46.874Z,17.34
2023-05-05T13:56:50.625Z,17.59
2023-05-05T14:01:53.963Z,17.75
2023-05-05T14:06:58.089Z,18.06
2023-05-05T14:12:00.719Z,18.64
2023-05-05T14:17:03.383Z,18.95
2023-05-05T14:22:06.543Z,19.11
2023-05-05T14:27:09.077Z,18.97
2023-05-05T14:32:11.765Z,18.89
2023-05-05T14:37:14.384Z,19.35
2023-05-05T14:42:17.092Z,19.81
2023-05-05T14:47:19.656Z,20.23
2023-05-05T14:52:22.198Z,20.88
2023-05-05T14:57:24.769Z,21.29
2023-05-05T15:02:27.352Z,22.12
2023-05-05T15:07:30.016Z,23.03
2023-05-05T15:12:32.589Z,23.31
2023-05-05T15:17:37.355Z,23.20
2023-05-05T15:22:40.050Z,22.62
2023-05-05T15:27:42.721Z,22.54
2023-05-05T15:32:45.392Z,22.56
2023-05-05T15:37:47.950Z,22.63
2023-05-05T15:42:50.448Z,22.98
2023-05-05T15:47:53.689Z,23.37
2023-05-05T15:52:57.194Z,23.56
2023-05-05T15:57:59.746Z,23.87
2023-05-05T16:03:02.472Z,23.58
2023-05-05T16:08:09.619Z,23.10
2023-05-05T16:13:12.378Z,22.53
2023-05-05T16:18:14.917Z,20.76
2023-05-05T16:23:17.723Z,18.97
2023-05-05T16:28:20.287Z,17.47
2023-05-05T16:33:22.952Z,16.41
2023-05-05T16:38:25.556Z,15.61
2023-05-05T16:43:28.122Z,15.11
2023-05-05T16:48:30.766Z,14.60
2023-05-05T16:53:33.551Z,14.15
2023-05-05T16:58:36.146Z,13.85
2023-05-05T17:03:39.374Z,13.46
2023-05-05T17:08:41.967Z,13.04
2023-05-05T17:13:44.468Z,12.69
2023-05-05T17:18:47.025Z,12.36
2023-05-05T17:23:50.159Z,12.09
2023-05-05T17:28:52.691Z,11.84
2023-05-05T17:33:55.531Z,11.62
2023-05-05T17:38:58.071Z,11.41
2023-05-05T17:44:00.731Z,11.22
2023-05-05T17:49:03.373Z,11.05
2023-05-05T17:54:06.026Z,10.84
2023-05-05T17:59:08.820Z,10.61
2023-05-05T18:04:11.386Z,10.39
2023-05-05T18:09:14.153Z,10.16
2023-05-05T18:14:17.692Z,9.93
2023-05-05T18:19:23.673Z,9.71
2023-05-05T18:24:27.455Z,9.50
2023-05-05T18:29:30.010Z,9.32
2023-05-05T18:34:32.804Z,9.14
2023-05-05T18:39:35.365Z,8.97
2023-05-05T18:44:38.041Z,8.80
2023-05-05T18:49:40.807Z,8.64
2023-05-05T18:54:43.404Z,8.50
2023-05-05T18:59:46.015Z,8.37
2023-05-05T19:04:48.716Z,8.24
2023-05-05T19:09:51.409Z,8.11
2023-05-05T19:14:53.973Z,7.99
2023-05-05T19:19:56.501Z,7.85
2023-05-05T19:24:59.070Z,7.72
2023-05-05T19:30:01.765Z,7.60
2023-05-05T19:35:06.687Z,7.48
2023-05-05T19:40:09.926Z,7.37
2023-05-05T19:45:12.660Z,7.27
2023-05-05T19:50:16.006Z,7.18
2023-05-05T19:55:18.716Z,7.07
2023-05-05T20:00:24.246Z,6.97
2023-05-05T20:05:27.206Z,6.85
2023-05-05T20:10:29.883Z,6.73
2023-05-05T20:15:33.335Z,6.62
2023-05-05T20:20:35.933Z,6.53
2023-05-05T20:25:38.594Z,6.44
2023-05-05T20:30:41.188Z,6.34
2023-05-05T20:35:43.772Z,6.25
2023-05-05T20:40:46.350Z,6.18
2023-05-05T20:45:48.840Z,6.10
2023-05-05T20:50:52.130Z,6.00
2023-05-05T20:55:54.683Z,5.90
2023-05-05T21:00:57.280Z,5.78
2023-05-05T21:05:59.916Z,5.69
2023-05-05T21:11:02.999Z,5.57
2023-05-05T21:16:05.728Z,5.44
2023-05-05T21:21:08.253Z,5.32
2023-05-05T21:26:10.820Z,5.19
2023-05-05T21:31:21.646Z,5.04
2023-05-05T21:36:25.035Z,4.93
2023-05-05T21:41:27.914Z,4.85
2023-05-05T21:46:30.500Z,4.78
2023-05-05T21:51:34.467Z,4.71
2023-05-05T21:56:37.406Z,4.64
2023-05-05T22:01:40.134Z,4.55
2023-05-05T22:06:42.784Z,4.47
2023-05-05T22:11:45.385Z,4.38
2023-05-05T22:16:48.007Z,4.29
2023-05-05T22:21:50.647Z,4.21
2023-05-05T22:26:54.174Z,4.11
2023-05-05T22:31:56.801Z,4.01
2023-05-05T22:36:59.628Z,3.92
2023-05-05T22:42:03.680Z,3.85
2023-05-05T22:47:06.925Z,3.78
2023-05-05T22:52:09.498Z,3.71
2023-05-05T22:57:12.058Z,3.64
2023-05-05T23:02:14.617Z,3.57
2023-05-05T23:07:17.204Z,3.50
2023-05-05T23:12:19.906Z,3.42
2023-05-05T23:17:22.731Z,3.37
2023-05-05T23:22:25.263Z,3.31
2023-05-05T23:27:27.797Z,3.27
2023-05-05T23:32:30.416Z,3.20
2023-05-05T23:37:32.970Z,3.17
2023-05-05T23:42:35.569Z,3.13
2023-05-05T23:47:38.143Z,3.08
2023-05-05T23:52:41.772Z,3.05
2023-05-05T23:57:44.333Z,3.01
